Time;durP1;ratioP1;P1;durP2;ratioP2;P2;SDS_P1;SDS_P2;PMS_P1;PMS_P2;Temp;Humidity;BMP_temperature;BMP_pressure;BME280_temperature;BME280_humidity;BME280_pressure;Samples;Min_cycle;Max_cycle;Signal;HPM_P1;HPM_P2
2022/10/24 00:01:20;;;;;;;2.38;0.40;;;14.70;96.40;;;;;;4783324;29;20064;-84
2022/10/24 00:03:48;;;;;;;1.80;0.60;;;14.60;96.40;;;;;;4754244;30;20051;-84
2022/10/24 00:06:16;;;;;;;2.85;0.68;;;14.60;96.40;;;;;;4768445;29;20052;-84
2022/10/24 00:08:44;;;;;;;1.48;0.63;;;14.60;96.50;;;;;;4768322;30;20055;-84
2022/10/24 00:11:17;;;;;;;4.53;0.70;;;14.50;96.50;;;;;;4772777;29;20094;-84
2022/10/24 00:13:44;;;;;;;1.80;0.60;;;14.50;96.50;;;;;;4768043;29;20520;-84
2022/10/24 00:16:11;;;;;;;1.67;0.60;;;14.50;96.50;;;;;;4783344;29;20101;-84
2022/10/24 00:18:39;;;;;;;2.65;0.60;;;14.50;96.50;;;;;;4768538;30;20601;-84
2022/10/24 00:21:06;;;;;;;2.55;0.55;;;14.40;96.50;;;;;;4770532;30;20039;-84
2022/10/24 00:23:34;;;;;;;2.95;0.45;;;14.40;96.70;;;;;;4783103;29;20814;-84
2022/10/24 00:26:04;;;;;;;2.10;0.50;;;14.40;96.60;;;;;;4783222;29;20054;-84
2022/10/24 00:28:33;;;;;;;1.17;0.50;;;14.40;96.60;;;;;;4768377;29;20055;-83
2022/10/24 00:31:00;;;;;;;1.33;0.40;;;14.40;96.70;;;;;;4782493;29;20498;-84
2022/10/24 00:33:28;;;;;;;2.08;0.50;;;14.30;96.70;;;;;;4782971;29;20072;-84
2022/10/24 00:35:54;;;;;;;3.20;0.60;;;14.30;96.70;;;;;;4768182;29;20052;-84
2022/10/24 00:38:21;;;;;;;2.10;0.40;;;14.30;96.70;;;;;;4782888;29;20131;-84
2022/10/24 00:40:49;;;;;;;4.25;0.60;;;14.30;96.80;;;;;;4782439;29;20505;-84
2022/10/24 00:43:19;;;;;;;4.38;0.55;;;14.30;96.80;;;;;;4780577;29;20055;-85
2022/10/24 00:45:55;;;;;;;1.75;0.68;;;14.30;96.80;;;;;;4771578;29;20048;-84
2022/10/24 00:48:44;;;;;;;1.67;0.50;;;14.30;96.80;;;;;;4771720;30;20052;-84
2022/10/24 00:51:17;;;;;;;2.20;0.80;;;14.30;96.80;;;;;;4771131;30;20127;-84
2022/10/24 00:53:48;;;;;;;2.05;0.43;;;14.30;96.80;;;;;;4786903;29;20142;-85
2022/10/24 00:56:18;;;;;;;3.47;0.60;;;14.30;96.80;;;;;;4771890;29;20497;-84
2022/10/24 00:58:48;;;;;;;1.00;0.40;;;14.20;96.80;;;;;;4786265;29;20060;-84
2022/10/24 01:01:15;;;;;;;3.42;0.43;;;14.20;96.90;;;;;;4770861;30;20142;-84
2022/10/24 01:03:43;;;;;;;1.65;0.60;;;14.20;96.90;;;;;;4771490;29;20051;-84
2022/10/24 01:06:55;;;;;;;2.75;0.50;;;14.20;96.90;;;;;;4756433;30;20120;-84
2022/10/24 01:09:34;;;;;;;3.03;0.57;;;14.20;96.90;;;;;;4768405;30;20070;-84
2022/10/24 01:12:28;;;;;;;2.67;0.63;;;14.10;96.90;;;;;;4771155;29;20313;-84
2022/10/24 01:15:01;;;;;;;2.38;0.40;;;14.10;96.90;;;;;;4786195;29;20056;-84
2022/10/24 01:17:44;;;;;;;0.75;0.40;;;14.10;97.00;;;;;;4771088;30;20068;-84
2022/10/24 01:20:17;;;;;;;1.42;0.52;;;14.10;97.00;;;;;;4771170;30;20096;-84
2022/10/24 01:23:03;;;;;;;1.27;0.70;;;14.10;97.00;;;;;;4771445;29;20490;-84
2022/10/24 01:25:54;;;;;;;2.05;0.70;;;14.10;97.00;;;;;;4770852;29;20456;-85
2022/10/24 01:28:28;;;;;;;1.58;0.57;;;14.00;97.00;;;;;;4770932;29;20056;-84
2022/10/24 01:31:08;;;;;;;1.92;0.40;;;14.00;97.10;;;;;;4785781;29;20105;-84
2022/10/24 01:33:41;;;;;;;1.30;0.40;;;14.00;97.10;;;;;;4764544;30;20129;-84
2022/10/24 01:36:23;;;;;;;1.48;0.40;;;14.00;97.10;;;;;;4764982;30;20154;-84
2022/10/24 01:38:55;;;;;;;2.67;0.35;;;14.00;97.10;;;;;;4784934;29;20043;-84
2022/10/24 01:41:25;;;;;;;1.83;0.50;;;13.90;97.10;;;;;;4785597;29;20048;-85
2022/10/24 01:44:15;;;;;;;3.03;0.60;;;13.90;97.10;;;;;;4785913;29;20442;-85
2022/10/24 01:47:06;;;;;;;1.17;0.40;;;13.80;97.10;;;;;;4770790;30;20497;-85
2022/10/24 01:49:36;;;;;;;2.70;0.50;;;13.80;97.10;;;;;;4750986;30;20466;-84
2022/10/24 01:52:08;;;;;;;3.92;0.50;;;13.80;97.30;;;;;;4770275;30;20048;-84
2022/10/24 01:54:38;;;;;;;2.45;0.43;;;13.70;97.20;;;;;;4770394;29;20052;-84
2022/10/24 01:57:07;;;;;;;1.48;0.32;;;13.70;97.20;;;;;;4770591;29;20567;-84
2022/10/24 01:59:47;;;;;;;2.15;0.60;;;13.70;97.30;;;;;;4785092;29;20051;-85
2022/10/24 02:02:26;;;;;;;1.55;0.40;;;13.70;97.30;;;;;;4770329;29;20091;-85
2022/10/24 02:05:03;;;;;;;1.67;0.55;;;13.70;97.30;;;;;;4770743;29;20151;-84
2022/10/24 02:07:32;;;;;;;1.85;0.40;;;13.60;97.30;;;;;;4785704;29;20121;-85
2022/10/24 02:10:06;;;;;;;1.98;0.40;;;13.60;97.30;;;;;;4774175;29;20052;-85
2022/10/24 02:12:38;;;;;;;2.53;0.68;;;13.60;97.30;;;;;;4770311;29;20051;-85
2022/10/24 02:15:27;;;;;;;2.45;0.35;;;13.50;97.40;;;;;;4770446;30;20052;-85
2022/10/24 02:17:56;;;;;;;1.85;0.50;;;13.60;97.40;;;;;;4785295;29;20056;-84
2022/10/24 02:20:43;;;;;;;3.55;0.52;;;13.60;97.40;;;;;;4770375;29;20058;-84
2022/10/24 02:23:25;;;;;;;2.35;0.65;;;13.70;97.30;;;;;;4770248;29;20067;-84
2022/10/24 02:25:56;;;;;;;2.42;0.55;;;13.70;97.20;;;;;;4784844;29;20056;-84
2022/10/24 02:28:28;;;;;;;1.38;0.52;;;13.70;97.30;;;;;;4769935;29;20105;-84
2022/10/24 02:31:01;;;;;;;2.22;0.60;;;13.80;97.20;;;;;;4770006;29;20056;-84
2022/10/24 02:33:30;;;;;;;3.70;0.73;;;13.80;97.40;;;;;;4769882;29;20066;-85
2022/10/24 02:35:58;;;;;;;5.57;1.05;;;13.90;97.10;;;;;;4785143;30;20044;-86
2022/10/24 02:38:31;;;;;;;3.47;0.95;;;13.90;97.00;;;;;;4784743;29;20486;-86
2022/10/24 02:41:03;;;;;;;3.58;0.80;;;14.00;96.90;;;;;;4762483;30;20060;-86
2022/10/24 02:43:31;;;;;;;1.90;0.77;;;14.10;96.90;;;;;;4785166;29;20074;-86
2022/10/24 02:45:58;;;;;;;3.30;1.13;;;14.10;96.80;;;;;;4770194;29;20056;-86
2022/10/24 02:48:35;;;;;;;1.38;0.60;;;14.10;96.70;;;;;;4784917;29;20043;-85
2022/10/24 02:51:03;;;;;;;3.65;0.60;;;14.10;96.70;;;;;;4784669;29;20071;-86
2022/10/24 02:53:33;;;;;;;2.35;0.40;;;14.00;96.80;;;;;;4770496;29;20052;-87
2022/10/24 02:56:00;;;;;;;1.38;0.50;;;14.00;96.80;;;;;;4769883;29;20078;-86
2022/10/24 02:58:27;;;;;;;1.45;0.55;;;14.00;96.80;;;;;;4784647;29;20039;-86
2022/10/24 03:00:54;;;;;;;1.90;0.40;;;14.00;96.80;;;;;;4773000;29;20462;-86
2022/10/24 03:03:21;;;;;;;2.35;0.60;;;14.00;96.80;;;;;;4769479;29;20056;-86
2022/10/24 03:05:48;;;;;;;2.75;0.88;;;14.00;96.70;;;;;;4784553;29;20062;-84
2022/10/24 03:08:15;;;;;;;2.95;0.60;;;14.10;96.60;;;;;;4769883;30;20043;-85
2022/10/24 03:10:42;;;;;;;2.83;0.40;;;14.00;96.60;;;;;;4769424;29;20063;-86
2022/10/24 03:13:09;;;;;;;3.60;0.55;;;14.10;96.90;;;;;;4784206;29;20142;-85
2022/10/24 03:15:36;;;;;;;4.28;0.80;;;14.10;96.50;;;;;;4769477;29;20048;-85
2022/10/24 03:18:03;;;;;;;2.92;0.55;;;14.10;96.40;;;;;;4769104;30;20071;-85
2022/10/24 03:20:30;;;;;;;4.35;0.60;;;14.10;96.30;;;;;;4769283;29;20521;-85
2022/10/24 03:22:57;;;;;;;1.92;0.60;;;14.20;96.30;;;;;;4784042;29;20052;-84
2022/10/24 03:25:24;;;;;;;1.55;0.70;;;14.20;96.30;;;;;;4784310;29;20417;-85
2022/10/24 03:27:51;;;;;;;4.90;0.60;;;14.10;96.20;;;;;;4754123;30;20087;-85
2022/10/24 03:30:19;;;;;;;2.25;0.50;;;14.20;96.20;;;;;;4768569;29;20421;-84
2022/10/24 03:32:46;;;;;;;1.75;0.30;;;14.10;96.20;;;;;;4750271;30;20070;-85
2022/10/24 03:35:14;;;;;;;2.38;0.55;;;14.10;96.30;;;;;;4782600;29;20457;-85
2022/10/24 03:37:41;;;;;;;5.93;0.75;;;14.00;96.30;;;;;;4768718;29;20100;-85
2022/10/24 03:40:10;;;;;;;1.55;0.50;;;13.90;96.40;;;;;;4768560;30;20051;-84
2022/10/24 03:42:37;;;;;;;1.73;0.50;;;13.90;96.40;;;;;;4764918;30;20105;-85
2022/10/24 03:45:05;;;;;;;2.17;0.40;;;13.90;96.30;;;;;;4768520;30;20505;-85
2022/10/24 03:47:32;;;;;;;2.08;0.50;;;13.90;96.40;;;;;;4767606;30;20058;-85
2022/10/24 03:49:59;;;;;;;1.20;0.50;;;14.00;96.30;;;;;;4768597;30;20147;-85
2022/10/24 03:52:26;;;;;;;1.13;0.40;;;14.00;96.20;;;;;;4764955;29;20502;-84
2022/10/24 03:54:53;;;;;;;2.45;0.40;;;14.00;96.20;;;;;;4781588;29;20055;-86
2022/10/24 03:57:20;;;;;;;2.83;0.70;;;14.00;96.20;;;;;;4754028;30;20047;-85
2022/10/24 03:59:47;;;;;;;2.05;0.57;;;14.00;96.20;;;;;;4781924;29;20054;-85
2022/10/24 04:02:14;;;;;;;2.92;0.50;;;14.00;96.10;;;;;;4779996;29;20064;-86
2022/10/24 04:04:41;;;;;;;2.75;0.60;;;14.00;96.00;;;;;;4783600;29;20135;-85
2022/10/24 04:07:08;;;;;;;1.38;0.50;;;14.10;96.00;;;;;;4767324;30;20441;-86
2022/10/24 04:09:35;;;;;;;1.10;0.40;;;14.10;95.90;;;;;;4770119;29;20047;-86
2022/10/24 04:12:02;;;;;;;3.40;0.40;;;14.10;95.80;;;;;;4769828;29;20044;-85
2022/10/24 04:14:29;;;;;;;1.70;0.40;;;14.10;95.80;;;;;;4768428;29;20098;-86
2022/10/24 04:16:56;;;;;;;0.60;0.20;;;14.20;95.80;;;;;;4768811;29;20058;-86
2022/10/24 04:19:23;;;;;;;2.45;0.40;;;14.20;95.70;;;;;;4770475;29;20147;-84
2022/10/24 04:21:50;;;;;;;1.50;0.40;;;14.20;95.70;;;;;;4772384;29;20044;-85
2022/10/24 04:24:17;;;;;;;1.67;0.32;;;14.20;95.80;;;;;;4771938;30;20044;-84
2022/10/24 04:26:44;;;;;;;3.13;0.40;;;14.20;95.60;;;;;;4760280;29;20459;-84
2022/10/24 04:29:11;;;;;;;2.85;0.40;;;14.20;95.60;;;;;;4772022;30;20480;-84
2022/10/24 04:31:38;;;;;;;1.33;0.30;;;14.20;95.70;;;;;;4771798;29;20517;-83
2022/10/24 04:34:05;;;;;;;1.15;0.52;;;14.10;95.70;;;;;;4771557;29;20052;-84
2022/10/24 04:36:33;;;;;;;2.85;0.40;;;14.00;95.80;;;;;;4786062;29;20058;-84
2022/10/24 04:39:00;;;;;;;1.42;0.30;;;13.90;95.80;;;;;;4771448;29;20562;-84
2022/10/24 04:41:27;;;;;;;2.38;0.30;;;13.90;95.90;;;;;;4771271;29;20048;-84
2022/10/24 04:43:55;;;;;;;1.83;0.30;;;13.90;95.90;;;;;;4757056;30;20054;-83
2022/10/24 04:46:22;;;;;;;0.80;0.20;;;13.80;95.90;;;;;;4786074;29;20087;-85
2022/10/24 04:48:49;;;;;;;0.77;0.20;;;13.80;95.90;;;;;;4786588;29;20069;-85
2022/10/24 04:51:16;;;;;;;0.93;0.20;;;13.80;96.00;;;;;;4786503;29;20052;-84
2022/10/24 04:53:49;;;;;;;1.60;0.20;;;13.70;96.00;;;;;;4771559;29;20404;-84
2022/10/24 04:56:17;;;;;;;1.15;0.38;;;13.70;96.00;;;;;;4786432;29;20116;-84
2022/10/24 04:58:44;;;;;;;2.17;0.40;;;13.80;96.00;;;;;;4771449;29;20043;-85
2022/10/24 05:01:11;;;;;;;3.58;0.80;;;13.80;95.90;;;;;;4771535;30;20084;-87
2022/10/24 05:03:39;;;;;;;7.15;1.40;;;13.90;95.80;;;;;;4787023;29;20075;-86
2022/10/24 05:06:06;;;;;;;1.05;0.40;;;14.00;95.70;;;;;;4771906;29;20395;-87
2022/10/24 05:08:33;;;;;;;2.70;0.50;;;14.00;95.50;;;;;;4771708;29;20056;-85
2022/10/24 05:11:00;;;;;;;3.08;0.47;;;14.10;95.50;;;;;;4768354;30;20055;-85
2022/10/24 05:13:27;;;;;;;2.28;0.40;;;14.10;95.40;;;;;;4741919;30;20414;-84
2022/10/24 05:16:00;;;;;;;3.22;0.30;;;14.10;95.40;;;;;;4786091;29;20550;-84
2022/10/24 05:18:27;;;;;;;1.10;0.30;;;14.10;95.40;;;;;;4770866;29;20138;-84
2022/10/24 05:20:58;;;;;;;2.67;0.38;;;14.00;95.50;;;;;;4727566;30;20051;-87
2022/10/24 05:23:26;;;;;;;3.85;0.40;;;13.90;95.50;;;;;;4787013;30;20059;-87
2022/10/24 05:25:53;;;;;;;0.65;0.25;;;14.00;95.50;;;;;;4786932;29;20117;-87
2022/10/24 05:28:20;;;;;;;3.47;0.40;;;14.10;95.40;;;;;;4785963;29;20130;-87
2022/10/24 05:30:50;;;;;;;2.05;0.22;;;14.10;95.40;;;;;;4740420;30;20056;-87
2022/10/24 05:33:17;;;;;;;3.10;0.38;;;14.10;95.40;;;;;;4755104;30;20106;-84
2022/10/24 05:35:45;;;;;;;5.53;1.05;;;14.10;95.40;;;;;;4777062;29;20143;-84
2022/10/24 05:38:11;;;;;;;1.40;0.45;;;14.20;95.30;;;;;;4770618;29;20105;-84
2022/10/24 05:40:38;;;;;;;2.22;0.40;;;14.20;95.20;;;;;;4782214;29;20047;-84
2022/10/24 05:43:05;;;;;;;3.22;0.30;;;14.20;95.20;;;;;;4770755;30;20054;-84
2022/10/24 05:45:33;;;;;;;1.75;0.30;;;14.10;95.20;;;;;;4770364;30;20135;-84
2022/10/24 05:48:00;;;;;;;2.00;0.30;;;14.10;95.30;;;;;;4770857;29;20087;-84
2022/10/24 05:50:28;;;;;;;1.25;0.32;;;14.10;95.30;;;;;;4785257;29;20109;-84
2022/10/24 05:52:55;;;;;;;1.73;0.40;;;14.10;95.20;;;;;;4770515;29;20098;-84
2022/10/24 05:55:23;;;;;;;3.40;0.20;;;14.20;95.20;;;;;;4785381;29;20048;-84
2022/10/24 05:57:50;;;;;;;2.20;0.30;;;14.20;95.20;;;;;;4785368;29;20051;-84
2022/10/24 06:00:17;;;;;;;3.67;0.20;;;14.20;95.10;;;;;;4772777;29;20043;-85
2022/10/24 06:02:45;;;;;;;1.85;0.28;;;14.30;95.00;;;;;;4771830;29;20066;-84
2022/10/24 06:05:12;;;;;;;2.95;0.35;;;14.30;95.00;;;;;;4770726;29;20443;-85
2022/10/24 06:07:40;;;;;;;2.28;0.40;;;14.30;94.90;;;;;;4773638;29;20052;-82
2022/10/24 06:10:09;;;;;;;1.23;0.30;;;14.30;95.00;;;;;;4770306;29;20048;-82
2022/10/24 06:12:36;;;;;;;1.85;0.30;;;14.20;95.00;;;;;;4770503;30;20410;-84
2022/10/24 06:15:06;;;;;;;1.13;0.22;;;14.20;95.10;;;;;;4770648;29;20502;-89
2022/10/24 06:17:33;;;;;;;1.38;0.20;;;14.20;95.10;;;;;;4785574;29;20456;-87
2022/10/24 06:20:00;;;;;;;2.97;0.20;;;14.10;95.20;;;;;;4770343;29;20067;-87
2022/10/24 06:22:28;;;;;;;1.88;0.40;;;14.10;95.20;;;;;;4770164;30;20131;-84
2022/10/24 06:24:56;;;;;;;2.10;0.22;;;14.10;95.20;;;;;;4755405;30;20497;-85
2022/10/24 06:27:26;;;;;;;2.53;0.30;;;14.10;95.10;;;;;;4763350;30;20060;-86
2022/10/24 06:29:53;;;;;;;3.33;1.17;;;14.10;95.00;;;;;;4770233;29;20055;-86
2022/10/24 06:32:20;;;;;;;3.80;0.40;;;14.30;94.80;;;;;;4785406;29;20044;-86
2022/10/24 06:34:47;;;;;;;2.38;0.47;;;14.40;94.70;;;;;;4785302;30;20442;-86
2022/10/24 06:37:14;;;;;;;2.15;0.38;;;14.40;94.60;;;;;;4770270;29;20048;-87
2022/10/24 06:39:41;;;;;;;3.35;0.50;;;14.40;94.60;;;;;;4770775;29;20075;-87
2022/10/24 06:42:10;;;;;;;4.85;0.70;;;14.40;94.60;;;;;;4784857;29;20052;-88
2022/10/24 06:44:38;;;;;;;3.08;0.60;;;14.40;94.60;;;;;;4785648;29;20048;-87
2022/10/24 06:47:05;;;;;;;5.05;0.82;;;14.50;94.50;;;;;;4785655;29;20047;-88
2022/10/24 06:49:32;;;;;;;4.65;0.57;;;14.50;94.70;;;;;;4770408;29;20051;-89
2022/10/24 06:52:00;;;;;;;2.47;0.40;;;14.50;94.50;;;;;;4770422;29;20098;-89
2022/10/24 06:54:27;;;;;;;3.88;0.40;;;14.60;94.40;;;;;;4785077;29;20494;-88
2022/10/24 06:56:56;;;;;;;4.50;0.40;;;14.60;94.50;;;;;;4785041;29;20044;-87
2022/10/24 06:59:23;;;;;;;2.13;0.45;;;14.60;94.30;;;;;;4784551;29;20089;-87
2022/10/24 07:01:51;;;;;;;4.55;0.82;;;14.70;94.20;;;;;;4784098;29;20497;-87
2022/10/24 07:04:18;;;;;;;3.53;0.43;;;14.70;94.20;;;;;;4769922;29;20425;-87
2022/10/24 07:06:45;;;;;;;2.75;0.60;;;14.70;94.20;;;;;;4784830;29;20052;-87
2022/10/24 07:09:12;;;;;;;6.85;0.65;;;14.80;94.20;;;;;;4769743;29;20488;-89
2022/10/24 07:11:42;;;;;;;2.72;0.40;;;14.80;94.20;;;;;;4769650;29;20140;-91
2022/10/24 07:14:10;;;;;;;2.60;0.40;;;14.80;94.10;;;;;;4755072;30;20056;-87
2022/10/24 07:16:38;;;;;;;2.03;0.22;;;14.90;94.10;;;;;;4769397;29;20147;-86
2022/10/24 07:19:05;;;;;;;4.88;0.40;;;14.90;94.10;;;;;;4784225;29;20112;-87
2022/10/24 07:21:32;;;;;;;2.92;0.73;;;14.90;94.10;;;;;;4769861;30;20506;-88
2022/10/24 07:24:00;;;;;;;2.13;0.50;;;14.90;94.00;;;;;;4763774;30;20132;-88
2022/10/24 07:26:29;;;;;;;3.38;0.50;;;15.00;94.00;;;;;;4769149;30;20109;-88
2022/10/24 07:28:59;;;;;;;3.58;0.40;;;15.00;94.00;;;;;;4784132;29;20051;-88
2022/10/24 07:31:30;;;;;;;2.22;0.30;;;15.00;93.90;;;;;;4766697;30;20125;-88
2022/10/24 07:33:59;;;;;;;4.97;0.50;;;15.10;93.90;;;;;;4769602;30;20112;-87
2022/10/24 07:36:29;;;;;;;2.58;0.60;;;15.00;93.90;;;;;;4776825;30;20504;-87
2022/10/24 07:38:57;;;;;;;4.00;0.70;;;15.00;94.20;;;;;;4769622;29;20077;-87
2022/10/24 07:41:26;;;;;;;2.47;0.70;;;15.00;94.00;;;;;;4769406;29;20490;-88
2022/10/24 07:43:55;;;;;;;2.95;0.40;;;15.00;94.00;;;;;;4769363;29;20056;-81
2022/10/24 07:46:23;;;;;;;5.63;1.25;;;15.10;93.90;;;;;;4774089;29;20055;-84
2022/10/24 07:48:51;;;;;;;4.35;0.30;;;15.10;93.80;;;;;;4783260;29;20063;-84
2022/10/24 07:51:19;;;;;;;3.55;0.40;;;15.10;93.80;;;;;;4780664;29;20052;-84
2022/10/24 07:53:46;;;;;;;2.67;0.40;;;15.20;94.10;;;;;;4768399;29;20096;-84
2022/10/24 07:56:14;;;;;;;4.97;0.30;;;15.30;93.70;;;;;;4768525;30;20044;-84
2022/10/24 07:58:43;;;;;;;2.22;0.40;;;15.30;93.70;;;;;;4783334;29;20095;-84
2022/10/24 08:01:22;;;;;;;5.65;0.55;;;15.40;93.60;;;;;;4768933;30;20051;-88
2022/10/24 08:03:49;;;;;;;4.30;0.63;;;15.40;93.60;;;;;;4784304;29;20059;-89
2022/10/24 08:06:23;;;;;;;1.73;0.30;;;15.40;93.50;;;;;;4769135;29;20126;-88
2022/10/24 08:08:50;;;;;;;4.25;0.73;;;15.40;93.50;;;;;;4769271;29;20559;-87
2022/10/24 08:11:25;;;;;;;3.38;0.50;;;15.40;93.40;;;;;;4768907;29;20108;-90
2022/10/24 08:13:53;;;;;;;4.05;0.38;;;15.50;93.20;;;;;;4769025;30;20712;-90
2022/10/24 08:16:25;;;;;;;2.08;0.30;;;15.50;93.30;;;;;;4784437;29;20052;-90
2022/10/24 08:18:54;;;;;;;5.33;0.40;;;15.50;93.10;;;;;;4769443;29;20117;-90
2022/10/24 08:21:23;;;;;;;4.07;0.47;;;15.50;93.10;;;;;;4769159;29;20068;-89
2022/10/24 08:23:52;;;;;;;3.45;0.40;;;15.60;93.10;;;;;;4768487;29;20063;-90
2022/10/24 08:26:22;;;;;;;7.20;0.65;;;15.60;93.00;;;;;;4771832;29;20055;-88
2022/10/24 08:28:50;;;;;;;1.40;0.30;;;15.70;93.00;;;;;;4769003;30;20139;-88
2022/10/24 08:31:19;;;;;;;5.13;0.30;;;15.70;93.00;;;;;;4773135;29;20062;-88
2022/10/24 08:33:47;;;;;;;2.55;0.60;;;15.70;92.80;;;;;;4772458;29;20048;-91
2022/10/24 08:36:25;;;;;;;2.75;0.30;;;15.70;92.80;;;;;;4754465;30;20055;-90
2022/10/24 08:38:53;;;;;;;5.38;0.40;;;15.80;92.60;;;;;;4769361;30;20511;-90
2022/10/24 08:41:38;;;;;;;2.53;0.30;;;15.80;92.30;;;;;;4784348;29;20051;-89
2022/10/24 08:44:29;;;;;;;3.97;0.85;;;15.90;92.40;;;;;;4769045;30;20105;-90
2022/10/24 08:47:16;;;;;;;2.38;0.70;;;15.90;92.20;;;;;;4769415;29;20147;-88
2022/10/24 08:50:00;;;;;;;1.52;0.30;;;16.00;92.10;;;;;;4769066;29;20058;-87
2022/10/24 08:52:34;;;;;;;4.60;0.95;;;16.00;92.20;;;;;;4762699;30;20044;-86
2022/10/24 08:55:16;;;;;;;6.43;0.63;;;16.00;92.10;;;;;;4773276;29;20079;-88
2022/10/24 08:58:04;;;;;;;4.80;0.20;;;16.00;92.20;;;;;;4767499;30;20040;-87
2022/10/24 09:00:38;;;;;;;3.75;0.30;;;16.00;92.20;;;;;;4768987;29;20047;-87
2022/10/24 09:03:20;;;;;;;1.67;0.30;;;16.10;92.10;;;;;;4768871;29;20139;-89
2022/10/24 09:06:19;;;;;;;5.23;0.83;;;16.30;92.10;;;;;;4770630;29;20044;-89
2022/10/24 09:08:57;;;;;;;3.00;0.50;;;16.50;91.90;;;;;;4785398;29;20446;-89
2022/10/24 09:11:51;;;;;;;1.27;0.30;;;16.60;91.60;;;;;;4759293;30;20151;-88
2022/10/24 09:14:24;;;;;;;3.83;0.40;;;16.70;91.50;;;;;;4757740;30;20058;-90
2022/10/24 09:17:11;;;;;;;1.90;0.40;;;16.70;90.90;;;;;;4789384;29;20074;-91
2022/10/24 09:19:39;;;;;;;4.32;0.50;;;16.80;89.70;;;;;;4785669;29;20052;-88
2022/10/24 09:22:10;;;;;;;5.70;0.93;;;16.70;90.20;;;;;;4772513;29;20547;-88
2022/10/24 09:24:46;;;;;;;3.23;0.27;;;16.70;90.50;;;;;;4771891;30;20052;-89
2022/10/24 09:27:26;;;;;;;2.55;0.52;;;16.60;90.60;;;;;;4763840;30;20056;-90
2022/10/24 09:29:55;;;;;;;5.05;0.40;;;16.50;90.60;;;;;;4775595;29;20512;-89
2022/10/24 09:32:27;;;;;;;4.47;0.38;;;16.50;90.70;;;;;;4772123;29;20043;-90
2022/10/24 09:35:11;;;;;;;3.60;0.40;;;16.50;90.80;;;;;;4774043;29;20131;-90
2022/10/24 09:37:40;;;;;;;1.52;0.28;;;16.50;91.00;;;;;;4773409;29;20052;-90
2022/10/24 09:40:19;;;;;;;3.28;0.30;;;16.50;91.00;;;;;;4775136;30;20112;-88
2022/10/24 09:43:06;;;;;;;3.85;0.60;;;16.60;90.90;;;;;;4774778;29;21458;-89
2022/10/24 09:45:42;;;;;;;4.20;0.82;;;16.70;90.40;;;;;;4786861;29;20052;-89
2022/10/24 09:48:34;;;;;;;3.35;0.60;;;16.70;90.10;;;;;;4772155;29;20083;-88
2022/10/24 09:51:05;;;;;;;3.42;0.40;;;16.80;90.10;;;;;;4778184;29;20048;-90
2022/10/24 09:53:39;;;;;;;3.90;0.40;;;16.90;89.70;;;;;;4789925;29;20525;-89
2022/10/24 09:56:11;;;;;;;4.93;0.82;;;17.00;89.10;;;;;;4769349;29;20149;-88
2022/10/24 09:58:39;;;;;;;4.30;0.68;;;17.10;88.50;;;;;;4769378;29;20079;-88
2022/10/24 10:01:15;;;;;;;5.75;0.75;;;17.20;87.60;;;;;;4788047;29;20112;-89
2022/10/24 10:03:58;;;;;;;2.67;0.40;;;17.40;86.70;;;;;;4790756;29;20067;-84
2022/10/24 10:06:25;;;;;;;2.45;0.30;;;17.40;86.60;;;;;;4782875;29;20062;-84
2022/10/24 10:08:56;;;;;;;2.90;0.50;;;17.40;86.80;;;;;;4766555;29;20401;-83
2022/10/24 10:11:29;;;;;;;2.27;0.23;;;17.40;87.10;;;;;;4756745;30;20059;-83
2022/10/24 10:14:00;;;;;;;3.10;0.70;;;17.40;87.30;;;;;;4768014;30;20051;-83
2022/10/24 10:16:32;;;;;;;3.83;0.40;;;17.40;86.60;;;;;;4768736;29;20497;-83
2022/10/24 10:19:11;;;;;;;1.52;0.30;;;17.40;87.20;;;;;;4768535;29;20048;-86
2022/10/24 10:22:01;;;;;;;2.08;0.28;;;17.50;87.30;;;;;;4769751;30;20115;-83
2022/10/24 10:24:35;;;;;;;1.80;0.70;;;17.60;86.60;;;;;;4781387;29;20056;-83
2022/10/24 10:27:33;;;;;;;2.92;0.43;;;17.60;86.00;;;;;;4782052;29;20060;-84
2022/10/24 10:30:06;;;;;;;1.80;0.40;;;17.70;85.70;;;;;;4769572;29;20055;-83
2022/10/24 10:33:02;;;;;;;3.42;0.50;;;17.70;84.30;;;;;;4769636;30;20142;-83
2022/10/24 10:35:38;;;;;;;3.28;0.60;;;17.70;84.80;;;;;;4784385;30;20870;-83
2022/10/24 10:38:25;;;;;;;1.88;0.55;;;17.70;85.50;;;;;;4769592;30;20055;-83
2022/10/24 10:41:16;;;;;;;3.50;0.40;;;17.70;85.20;;;;;;4784591;29;20125;-83
2022/10/24 10:43:57;;;;;;;2.30;0.43;;;17.80;85.00;;;;;;4769568;29;20101;-83
2022/10/24 10:46:38;;;;;;;3.03;0.43;;;17.80;84.80;;;;;;4754606;30;20067;-84
2022/10/24 10:49:22;;;;;;;2.13;0.40;;;17.80;82.90;;;;;;4770554;30;20043;-83
2022/10/24 10:51:56;;;;;;;2.92;0.43;;;17.80;82.80;;;;;;4772113;29;20074;-82
2022/10/24 10:54:47;;;;;;;5.82;0.70;;;17.80;83.10;;;;;;4769361;30;20132;-82
2022/10/24 10:57:18;;;;;;;3.92;0.60;;;17.80;82.70;;;;;;4769675;29;20394;-83
2022/10/24 11:00:09;;;;;;;4.80;0.50;;;17.80;82.20;;;;;;4769487;30;20134;-83
2022/10/24 11:03:15;;;;;;;3.47;0.73;;;17.90;81.30;;;;;;4783575;30;20060;-83
2022/10/24 11:05:52;;;;;;;3.67;0.40;;;17.90;80.90;;;;;;4781440;30;20541;-82
2022/10/24 11:08:31;;;;;;;2.65;0.80;;;18.00;81.50;;;;;;4786627;29;20142;-88
2022/10/24 11:11:06;;;;;;;3.72;0.38;;;18.00;81.00;;;;;;4766947;30;20120;-89
2022/10/24 11:13:39;;;;;;;2.47;0.50;;;18.00;80.70;;;;;;4770198;30;20055;-89
2022/10/24 11:16:13;;;;;;;1.10;0.30;;;17.90;80.60;;;;;;4785241;29;20052;-89
2022/10/24 11:18:44;;;;;;;3.05;0.40;;;17.80;80.70;;;;;;4784984;29;20082;-89
2022/10/24 11:21:17;;;;;;;2.90;0.50;;;17.90;80.50;;;;;;4770231;30;20159;-89
2022/10/24 11:23:56;;;;;;;;;;;17.90;80.50;;;;;;4775522;29;20052;-87
2022/10/24 11:26:34;;;;;;;3.15;0.40;;;17.90;80.50;;;;;;4784818;29;19969;-89
2022/10/24 11:29:24;;;;;;;3.30;0.47;;;18.00;80.60;;;;;;4784552;29;20116;-87
2022/10/24 11:32:13;;;;;;;1.88;0.30;;;18.10;80.10;;;;;;4769806;30;20051;-91
2022/10/24 11:34:50;;;;;;;3.58;0.55;;;18.10;80.80;;;;;;4770204;29;20051;-91
2022/10/24 11:37:39;;;;;;;3.63;0.85;;;18.10;80.40;;;;;;4784751;29;20066;-82
2022/10/24 11:40:12;;;;;;;4.15;0.45;;;18.00;79.20;;;;;;4770252;29;20055;-82
2022/10/24 11:42:45;;;;;;;1.77;0.30;;;18.10;79.40;;;;;;4783444;29;20056;-82
2022/10/24 11:45:21;;;;;;;3.30;0.40;;;18.00;79.20;;;;;;4783256;29;20475;-83
2022/10/24 11:47:51;;;;;;;3.70;0.52;;;18.10;79.40;;;;;;4776020;29;20051;-84
2022/10/24 11:50:42;;;;;;;2.45;0.40;;;18.20;79.00;;;;;;4783314;29;20127;-83
2022/10/24 11:53:44;;;;;;;4.30;0.57;;;18.20;78.80;;;;;;4768411;29;20059;-84
2022/10/24 11:56:42;;;;;;;7.68;0.88;;;18.20;78.10;;;;;;4771399;29;20948;-81
2022/10/24 11:59:20;;;;;;;5.05;0.90;;;18.10;78.30;;;;;;4765304;30;20048;-83
2022/10/24 12:02:27;;;;;;;2.65;0.45;;;17.90;78.60;;;;;;4761590;30;20114;-84
2022/10/24 12:05:20;;;;;;;3.30;0.30;;;17.80;78.80;;;;;;4766086;29;20079;-82
2022/10/24 12:08:00;;;;;;;2.83;0.43;;;17.70;79.30;;;;;;4777326;30;20493;-82
2022/10/24 12:10:52;;;;;;;2.92;0.73;;;17.70;79.90;;;;;;4767850;30;20056;-82
2022/10/24 12:13:46;;;;;;;2.38;0.50;;;17.70;80.50;;;;;;4767239;30;20043;-83
2022/10/24 12:16:55;;;;;;;1.80;0.30;;;17.80;80.80;;;;;;4767702;30;20119;-83
2022/10/24 12:19:23;;;;;;;4.15;0.50;;;17.80;80.90;;;;;;4751706;30;20055;-83
2022/10/24 12:22:01;;;;;;;3.88;0.65;;;17.80;80.90;;;;;;4775564;29;20044;-82
2022/10/24 12:24:37;;;;;;;3.20;0.63;;;17.80;80.60;;;;;;4766007;30;20113;-82
2022/10/24 12:27:38;;;;;;;1.85;0.30;;;17.90;80.70;;;;;;4767716;30;20055;-82
2022/10/24 12:30:08;;;;;;;4.68;0.50;;;17.90;80.30;;;;;;4774543;30;20067;-82
2022/10/24 12:33:07;;;;;;;3.55;0.47;;;18.00;80.50;;;;;;4768493;30;20089;-81
2022/10/24 12:35:44;;;;;;;4.93;0.50;;;18.00;80.90;;;;;;4758377;30;20394;-83
2022/10/24 12:38:37;;;;;;;1.40;0.20;;;18.10;81.30;;;;;;4759606;30;20044;-84
2022/10/24 12:41:05;;;;;;;;;;;18.30;81.70;;;;;;4756155;29;20079;-83
2022/10/24 12:43:36;;;;;;;4.57;0.73;;;18.20;81.70;;;;;;4786414;29;20124;-84
2022/10/24 12:46:16;;;;;;;3.28;0.22;;;18.30;81.20;;;;;;4771639;30;20247;-83
2022/10/24 12:48:58;;;;;;;2.00;0.30;;;18.20;81.60;;;;;;4786433;29;20157;-83
2022/10/24 12:51:31;;;;;;;1.55;0.38;;;18.10;82.10;;;;;;4790020;29;20157;-83
2022/10/24 12:54:10;;;;;;;2.20;0.40;;;18.10;82.40;;;;;;4771088;30;20578;-83
2022/10/24 12:56:50;;;;;;;2.42;0.40;;;18.20;82.80;;;;;;4780038;30;20536;-83
2022/10/24 12:59:32;;;;;;;3.17;0.40;;;18.10;82.80;;;;;;4776956;30;20493;-82
2022/10/24 13:02:14;;;;;;;2.15;0.40;;;18.00;83.20;;;;;;4774514;29;20060;-82
2022/10/24 13:05:00;;;;;;;;;;;18.00;83.30;;;;;;4783631;29;20131;-83
2022/10/24 13:07:45;;;;;;;2.92;0.45;;;18.00;83.30;;;;;;4766415;30;20021;-82
2022/10/24 13:10:28;;;;;;;2.65;0.50;;;17.90;83.00;;;;;;4779323;30;20048;-83
2022/10/24 13:13:40;;;;;;;2.28;0.50;;;17.90;83.20;;;;;;4763854;30;20123;-82
2022/10/24 13:16:12;;;;;;;4.45;0.85;;;17.80;83.40;;;;;;4766851;30;20085;-81
2022/10/24 13:19:00;;;;;;;1.55;0.40;;;17.80;83.30;;;;;;4768344;29;20052;-82
2022/10/24 13:21:27;;;;;;;2.20;0.50;;;17.80;83.50;;;;;;4775869;30;20056;-82